sensor_id;sensor_type;location;lat;lon;timestamp;pressure;altitude;pressure_sealevel;temperature;humidity
49315;BME280;36672;50.710;12.498;2022-12-07T00:00:40;98346.72;;;1.79;92.41
49315;BME280;36672;50.710;12.498;2022-12-07T00:03:06;98345.88;;;1.78;92.19
49315;BME280;36672;50.710;12.498;2022-12-07T00:05:31;98353.84;;;1.78;92.39
49315;BME280;36672;50.710;12.498;2022-12-07T00:07:56;98358.34;;;1.78;91.96
49315;BME280;36672;50.710;12.498;2022-12-07T00:10:21;98361.25;;;1.85;92.22
49315;BME280;36672;50.710;12.498;2022-12-07T00:12:47;98360.59;;;1.83;91.95
49315;BME280;36672;50.710;12.498;2022-12-07T00:15:12;98355.38;;;1.81;91.98
49315;BME280;36672;50.710;12.498;2022-12-07T00:17:37;98356.91;;;1.84;92.06
49315;BME280;36672;50.710;12.498;2022-12-07T00:20:03;98350.75;;;1.83;92.28
49315;BME280;36672;50.710;12.498;2022-12-07T00:22:29;98341.94;;;1.83;91.78
49315;BME280;36672;50.710;12.498;2022-12-07T00:24:54;98334.53;;;1.76;92.12
49315;BME280;36672;50.710;12.498;2022-12-07T00:27:20;98310.75;;;1.65;91.96
49315;BME280;36672;50.710;12.498;2022-12-07T00:29:45;98298.31;;;1.56;91.73
49315;BME280;36672;50.710;12.498;2022-12-07T00:32:10;98333.41;;;1.79;91.75
49315;BME280;36672;50.710;12.498;2022-12-07T00:34:35;98322.03;;;1.77;91.48
49315;BME280;36672;50.710;12.498;2022-12-07T00:37:01;98330.19;;;1.75;91.75
49315;BME280;36672;50.710;12.498;2022-12-07T00:39:26;98330.91;;;1.77;91.62
49315;BME280;36672;50.710;12.498;2022-12-07T00:41:52;98300.16;;;1.55;91.67
49315;BME280;36672;50.710;12.498;2022-12-07T00:44:17;98326.00;;;1.73;91.73
49315;BME280;36672;50.710;12.498;2022-12-07T00:46:42;98328.66;;;1.73;91.43
49315;BME280;36672;50.710;12.498;2022-12-07T00:49:08;98302.38;;;1.60;91.68
49315;BME280;36672;50.710;12.498;2022-12-07T00:51:33;98316.47;;;1.70;91.50
49315;BME280;36672;50.710;12.498;2022-12-07T00:53:58;98295.22;;;1.60;91.47
49315;BME280;36672;50.710;12.498;2022-12-07T00:56:26;98319.84;;;1.72;91.63
49315;BME280;36672;50.710;12.498;2022-12-07T00:59:02;98320.28;;;1.68;91.18
49315;BME280;36672;50.710;12.498;2022-12-07T01:01:31;98316.91;;;1.66;91.29
49315;BME280;36672;50.710;12.498;2022-12-07T01:03:56;98300.88;;;1.48;91.44
49315;BME280;36672;50.710;12.498;2022-12-07T01:06:23;98316.94;;;1.56;91.59
49315;BME280;36672;50.710;12.498;2022-12-07T01:08:49;98318.25;;;1.52;91.26
49315;BME280;36672;50.710;12.498;2022-12-07T01:11:16;98316.63;;;1.41;91.07
49315;BME280;36672;50.710;12.498;2022-12-07T01:13:43;98274.59;;;1.07;90.83
49315;BME280;36672;50.710;12.498;2022-12-07T01:16:16;98304.34;;;1.20;90.85
49315;BME280;36672;50.710;12.498;2022-12-07T01:18:42;98292.97;;;1.00;90.85
49315;BME280;36672;50.710;12.498;2022-12-07T01:21:16;98322.75;;;1.04;90.74
49315;BME280;36672;50.710;12.498;2022-12-07T01:23:42;98320.13;;;0.94;90.33
49315;BME280;36672;50.710;12.498;2022-12-07T01:26:13;98317.75;;;0.81;90.34
49315;BME280;36672;50.710;12.498;2022-12-07T01:28:39;98287.84;;;0.59;90.50
49315;BME280;36672;50.710;12.498;2022-12-07T01:31:10;98278.38;;;0.47;90.57
49315;BME280;36672;50.710;12.498;2022-12-07T01:33:37;98307.44;;;0.58;90.21
49315;BME280;36672;50.710;12.498;2022-12-07T01:36:05;98298.34;;;0.41;90.13
49315;BME280;36672;50.710;12.498;2022-12-07T01:38:31;98304.50;;;0.42;90.05
49315;BME280;36672;50.710;12.498;2022-12-07T01:40:58;98282.97;;;0.25;90.25
49315;BME280;36672;50.710;12.498;2022-12-07T01:43:25;98300.03;;;0.32;89.90
49315;BME280;36672;50.710;12.498;2022-12-07T01:45:51;98299.63;;;0.27;90.25
49315;BME280;36672;50.710;12.498;2022-12-07T01:48:24;98297.50;;;0.21;90.22
49315;BME280;36672;50.710;12.498;2022-12-07T01:50:51;98299.91;;;0.14;90.14
49315;BME280;36672;50.710;12.498;2022-12-07T01:53:19;98293.88;;;0.03;90.12
49315;BME280;36672;50.710;12.498;2022-12-07T01:55:48;98274.16;;;-0.05;90.22
49315;BME280;36672;50.710;12.498;2022-12-07T01:58:16;98283.25;;;0.03;90.11
49315;BME280;36672;50.710;12.498;2022-12-07T02:00:41;98293.16;;;0.01;90.34
49315;BME280;36672;50.710;12.498;2022-12-07T02:03:14;98269.53;;;-0.12;90.29
49315;BME280;36672;50.710;12.498;2022-12-07T02:05:43;98276.25;;;-0.08;89.98
49315;BME280;36672;50.710;12.498;2022-12-07T02:08:09;98249.22;;;-0.33;90.15
49315;BME280;36672;50.710;12.498;2022-12-07T02:10:35;98260.41;;;-0.29;90.19
49315;BME280;36672;50.710;12.498;2022-12-07T02:13:05;98274.69;;;-0.21;90.27
49315;BME280;36672;50.710;12.498;2022-12-07T02:16:00;98275.38;;;-0.28;90.27
49315;BME280;36672;50.710;12.498;2022-12-07T02:29:27;98276.44;;;-0.41;90.05
49315;BME280;36672;50.710;12.498;2022-12-07T02:31:59;98272.53;;;-0.46;89.92
49315;BME280;36672;50.710;12.498;2022-12-07T02:34:37;98264.84;;;-0.50;89.92
49315;BME280;36672;50.710;12.498;2022-12-07T02:37:11;98266.66;;;-0.50;90.12
49315;BME280;36672;50.710;12.498;2022-12-07T02:39:45;98256.16;;;-0.61;89.90
49315;BME280;36672;50.710;12.498;2022-12-07T02:42:20;98236.16;;;-0.75;89.86
49315;BME280;36672;50.710;12.498;2022-12-07T02:44:48;98264.69;;;-0.58;90.13
49315;BME280;36672;50.710;12.498;2022-12-07T02:47:16;98261.31;;;-0.60;90.37
49315;BME280;36672;50.710;12.498;2022-12-07T02:49:43;98246.09;;;-0.68;90.10
49315;BME280;36672;50.710;12.498;2022-12-07T02:52:08;98249.31;;;-0.64;90.49
49315;BME280;36672;50.710;12.498;2022-12-07T02:54:33;98214.88;;;-0.85;90.37
49315;BME280;36672;50.710;12.498;2022-12-07T02:57:21;98222.00;;;-0.86;89.85
49315;BME280;36672;50.710;12.498;2022-12-07T03:00:24;98250.81;;;-0.71;90.17
49315;BME280;36672;50.710;12.498;2022-12-07T03:03:03;98258.66;;;-0.70;90.23
49315;BME280;36672;50.710;12.498;2022-12-07T03:05:55;98251.09;;;-0.74;90.22
49315;BME280;36672;50.710;12.498;2022-12-07T03:08:52;98242.41;;;-0.76;90.06
49315;BME280;36672;50.710;12.498;2022-12-07T03:11:44;98245.94;;;-0.76;89.83
49315;BME280;36672;50.710;12.498;2022-12-07T03:14:31;98240.06;;;-0.79;90.11
49315;BME280;36672;50.710;12.498;2022-12-07T03:17:25;98241.00;;;-0.80;90.33
49315;BME280;36672;50.710;12.498;2022-12-07T03:19:55;98247.72;;;-0.76;90.23
49315;BME280;36672;50.710;12.498;2022-12-07T03:22:23;98232.09;;;-0.79;90.46
49315;BME280;36672;50.710;12.498;2022-12-07T03:24:59;98236.00;;;-0.74;90.74
49315;BME280;36672;50.710;12.498;2022-12-07T03:27:29;98237.88;;;-0.64;90.81
49315;BME280;36672;50.710;12.498;2022-12-07T03:30:00;98230.34;;;-0.59;90.89
49315;BME280;36672;50.710;12.498;2022-12-07T03:32:37;98225.03;;;-0.50;90.88
49315;BME280;36672;50.710;12.498;2022-12-07T03:35:37;98225.75;;;-0.47;90.74
49315;BME280;36672;50.710;12.498;2022-12-07T03:38:25;98218.91;;;-0.40;90.43
49315;BME280;36672;50.710;12.498;2022-12-07T03:41:02;98192.06;;;-0.57;90.43
49315;BME280;36672;50.710;12.498;2022-12-07T03:43:31;98228.56;;;-0.29;90.80
49315;BME280;36672;50.710;12.498;2022-12-07T03:49:00;98231.53;;;-0.23;90.30
49315;BME280;36672;50.710;12.498;2022-12-07T03:51:43;98186.50;;;-0.44;90.16
49315;BME280;36672;50.710;12.498;2022-12-07T03:54:16;98213.47;;;-0.19;89.98
49315;BME280;36672;50.710;12.498;2022-12-07T03:56:44;98216.97;;;-0.19;90.38
49315;BME280;36672;50.710;12.498;2022-12-07T03:59:11;98214.75;;;-0.13;90.36
49315;BME280;36672;50.710;12.498;2022-12-07T04:01:38;98193.63;;;-0.25;90.06
49315;BME280;36672;50.710;12.498;2022-12-07T04:04:03;98211.25;;;-0.14;90.12
49315;BME280;36672;50.710;12.498;2022-12-07T04:06:29;98205.25;;;-0.16;90.14
49315;BME280;36672;50.710;12.498;2022-12-07T04:08:54;98207.34;;;-0.20;89.92
49315;BME280;36672;50.710;12.498;2022-12-07T04:11:19;98184.41;;;-0.30;89.72
49315;BME280;36672;50.710;12.498;2022-12-07T04:13:45;98198.94;;;-0.25;89.53
49315;BME280;36672;50.710;12.498;2022-12-07T04:16:29;98194.59;;;-0.26;89.56
49315;BME280;36672;50.710;12.498;2022-12-07T04:18:54;98190.97;;;-0.25;89.89
49315;BME280;36672;50.710;12.498;2022-12-07T04:21:19;98171.41;;;-0.34;89.60
49315;BME280;36672;50.710;12.498;2022-12-07T04:23:44;98174.66;;;-0.20;89.57
49315;BME280;36672;50.710;12.498;2022-12-07T04:26:10;98158.41;;;-0.17;89.04
49315;BME280;36672;50.710;12.498;2022-12-07T04:28:35;98172.38;;;0.05;88.69
49315;BME280;36672;50.710;12.498;2022-12-07T04:31:00;98174.31;;;0.12;88.77
49315;BME280;36672;50.710;12.498;2022-12-07T04:33:26;98160.38;;;0.10;88.75
49315;BME280;36672;50.710;12.498;2022-12-07T04:35:51;98169.56;;;0.26;88.39
49315;BME280;36672;50.710;12.498;2022-12-07T04:38:16;98149.28;;;0.25;88.37
49315;BME280;36672;50.710;12.498;2022-12-07T04:40:42;98156.50;;;0.42;88.31
49315;BME280;36672;50.710;12.498;2022-12-07T04:43:07;98167.41;;;0.49;87.84
49315;BME280;36672;50.710;12.498;2022-12-07T04:45:32;98152.88;;;0.43;87.63
49315;BME280;36672;50.710;12.498;2022-12-07T04:47:58;98167.94;;;0.62;87.61
49315;BME280;36672;50.710;12.498;2022-12-07T04:50:23;98175.16;;;0.70;87.65
49315;BME280;36672;50.710;12.498;2022-12-07T04:52:49;98166.47;;;0.78;87.78
49315;BME280;36672;50.710;12.498;2022-12-07T04:55:14;98143.97;;;0.72;87.53
49315;BME280;36672;50.710;12.498;2022-12-07T04:57:40;98149.06;;;0.84;88.02
49315;BME280;36672;50.710;12.498;2022-12-07T05:00:05;98144.59;;;0.84;87.18
49315;BME280;36672;50.710;12.498;2022-12-07T05:02:31;98155.88;;;0.96;87.27
49315;BME280;36672;50.710;12.498;2022-12-07T05:04:56;98155.44;;;1.01;87.01
49315;BME280;36672;50.710;12.498;2022-12-07T05:07:21;98142.28;;;0.99;86.71
49315;BME280;36672;50.710;12.498;2022-12-07T05:09:47;98125.75;;;0.77;86.59
49315;BME280;36672;50.710;12.498;2022-12-07T05:12:12;98158.09;;;1.01;86.65
49315;BME280;36672;50.710;12.498;2022-12-07T05:14:37;98163.13;;;1.04;86.84
49315;BME280;36672;50.710;12.498;2022-12-07T05:17:03;98167.31;;;1.06;86.96
49315;BME280;36672;50.710;12.498;2022-12-07T05:19:29;98167.19;;;1.08;86.88
49315;BME280;36672;50.710;12.498;2022-12-07T05:21:54;98165.66;;;1.05;87.11
49315;BME280;36672;50.710;12.498;2022-12-07T05:24:19;98170.81;;;1.07;87.19
49315;BME280;36672;50.710;12.498;2022-12-07T05:26:45;98142.50;;;0.88;87.00
49315;BME280;36672;50.710;12.498;2022-12-07T05:29:16;98163.19;;;0.94;87.18
49315;BME280;36672;50.710;12.498;2022-12-07T05:31:42;98153.28;;;0.86;87.66
49315;BME280;36672;50.710;12.498;2022-12-07T05:34:08;98158.06;;;0.83;87.81
49315;BME280;36672;50.710;12.498;2022-12-07T05:36:34;98155.53;;;0.81;88.19
49315;BME280;36672;50.710;12.498;2022-12-07T05:38:59;98152.03;;;0.80;88.32
49315;BME280;36672;50.710;12.498;2022-12-07T05:41:25;98146.56;;;0.82;88.66
49315;BME280;36672;50.710;12.498;2022-12-07T05:44:09;98152.75;;;0.83;88.72
49315;BME280;36672;50.710;12.498;2022-12-07T05:46:35;98139.72;;;0.79;88.68
49315;BME280;36672;50.710;12.498;2022-12-07T05:49:00;98145.44;;;0.85;88.73
49315;BME280;36672;50.710;12.498;2022-12-07T05:51:26;98131.91;;;0.78;89.21
49315;BME280;36672;50.710;12.498;2022-12-07T05:53:51;98151.44;;;0.87;88.66
49315;BME280;36672;50.710;12.498;2022-12-07T05:56:17;98144.88;;;0.81;88.93
49315;BME280;36672;50.710;12.498;2022-12-07T05:58:42;98145.75;;;0.81;89.05
49315;BME280;36672;50.710;12.498;2022-12-07T06:01:26;98149.69;;;0.77;89.24
49315;BME280;36672;50.710;12.498;2022-12-07T06:03:52;98148.41;;;0.81;89.16
49315;BME280;36672;50.710;12.498;2022-12-07T06:06:17;98149.78;;;0.86;89.15
49315;BME280;36672;50.710;12.498;2022-12-07T06:08:42;98129.81;;;0.72;89.11
49315;BME280;36672;50.710;12.498;2022-12-07T06:11:08;98159.66;;;0.93;89.12
49315;BME280;36672;50.710;12.498;2022-12-07T06:13:52;98150.88;;;0.93;89.05
49315;BME280;36672;50.710;12.498;2022-12-07T06:16:17;98143.72;;;0.93;89.07
49315;BME280;36672;50.710;12.498;2022-12-07T06:18:43;98145.00;;;0.89;89.21
49315;BME280;36672;50.710;12.498;2022-12-07T06:21:08;98131.75;;;0.79;89.49
49315;BME280;36672;50.710;12.498;2022-12-07T06:23:33;98119.41;;;0.78;89.42
49315;BME280;36672;50.710;12.498;2022-12-07T06:25:59;98132.00;;;0.86;89.51
49315;BME280;36672;50.710;12.498;2022-12-07T06:28:24;98150.41;;;0.97;89.54
49315;BME280;36672;50.710;12.498;2022-12-07T06:30:57;98152.94;;;0.99;89.50
49315;BME280;36672;50.710;12.498;2022-12-07T06:33:23;98151.97;;;1.00;89.62
49315;BME280;36672;50.710;12.498;2022-12-07T06:35:48;98152.09;;;0.98;89.68
49315;BME280;36672;50.710;12.498;2022-12-07T06:38:13;98157.78;;;1.04;89.58
49315;BME280;36672;50.710;12.498;2022-12-07T06:40:39;98159.19;;;1.08;89.68
49315;BME280;36672;50.710;12.498;2022-12-07T06:43:04;98149.81;;;1.04;89.49
49315;BME280;36672;50.710;12.498;2022-12-07T06:45:29;98155.25;;;1.12;89.81
49315;BME280;36672;50.710;12.498;2022-12-07T06:47:54;98154.25;;;1.13;89.61
49315;BME280;36672;50.710;12.498;2022-12-07T06:50:20;98156.19;;;1.21;89.63
49315;BME280;36672;50.710;12.498;2022-12-07T06:52:45;98136.47;;;1.13;89.82
49315;BME280;36672;50.710;12.498;2022-12-07T06:55:10;98136.78;;;1.10;89.28
49315;BME280;36672;50.710;12.498;2022-12-07T06:57:36;98162.16;;;1.23;89.50
49315;BME280;36672;50.710;12.498;2022-12-07T07:00:02;98161.19;;;1.24;89.94
49315;BME280;36672;50.710;12.498;2022-12-07T07:02:27;98156.25;;;1.29;89.75
49315;BME280;36672;50.710;12.498;2022-12-07T07:04:53;98160.16;;;1.35;89.50
49315;BME280;36672;50.710;12.498;2022-12-07T07:07:18;98149.13;;;1.29;89.75
49315;BME280;36672;50.710;12.498;2022-12-07T07:09:43;98163.59;;;1.45;89.95
49315;BME280;36672;50.710;12.498;2022-12-07T07:12:09;98162.66;;;1.36;89.66
49315;BME280;36672;50.710;12.498;2022-12-07T07:14:34;98169.63;;;1.47;89.53
49315;BME280;36672;50.710;12.498;2022-12-07T07:17:00;98171.25;;;1.48;89.48
49315;BME280;36672;50.710;12.498;2022-12-07T07:19:25;98166.09;;;1.46;89.67
49315;BME280;36672;50.710;12.498;2022-12-07T07:21:50;98173.63;;;1.51;89.38
49315;BME280;36672;50.710;12.498;2022-12-07T07:24:15;98162.88;;;1.43;89.54
49315;BME280;36672;50.710;12.498;2022-12-07T07:26:41;98171.81;;;1.52;89.40
49315;BME280;36672;50.710;12.498;2022-12-07T07:29:06;98175.44;;;1.51;89.27
49315;BME280;36672;50.710;12.498;2022-12-07T07:31:31;98174.06;;;1.46;89.87
49315;BME280;36672;50.710;12.498;2022-12-07T07:33:59;98188.75;;;1.51;89.62
49315;BME280;36672;50.710;12.498;2022-12-07T07:36:25;98165.47;;;1.35;89.51
49315;BME280;36672;50.710;12.498;2022-12-07T07:38:50;98187.78;;;1.52;89.79
49315;BME280;36672;50.710;12.498;2022-12-07T07:41:15;98189.63;;;1.51;89.79
49315;BME280;36672;50.710;12.498;2022-12-07T07:43:40;98191.81;;;1.56;89.91
49315;BME280;36672;50.710;12.498;2022-12-07T07:46:06;98197.53;;;1.61;90.14
49315;BME280;36672;50.710;12.498;2022-12-07T07:48:31;98204.53;;;1.62;90.01
49315;BME280;36672;50.710;12.498;2022-12-07T07:50:56;98200.88;;;1.63;90.13
49315;BME280;36672;50.710;12.498;2022-12-07T07:53:22;98208.59;;;1.66;89.96
49315;BME280;36672;50.710;12.498;2022-12-07T07:55:51;98183.59;;;1.49;90.04
49315;BME280;36672;50.710;12.498;2022-12-07T07:58:17;98208.97;;;1.71;90.16
49315;BME280;36672;50.710;12.498;2022-12-07T08:00:42;98203.69;;;1.79;90.17
49315;BME280;36672;50.710;12.498;2022-12-07T08:03:08;98200.88;;;1.81;90.24
49315;BME280;36672;50.710;12.498;2022-12-07T08:05:33;98201.75;;;1.82;89.64
49315;BME280;36672;50.710;12.498;2022-12-07T08:07:58;98209.41;;;1.85;90.07
49315;BME280;36672;50.710;12.498;2022-12-07T08:10:24;98204.94;;;1.85;89.65
49315;BME280;36672;50.710;12.498;2022-12-07T08:12:49;98208.75;;;1.83;89.58
49315;BME280;36672;50.710;12.498;2022-12-07T08:15:33;98212.69;;;1.78;89.65
49315;BME280;36672;50.710;12.498;2022-12-07T08:17:59;98211.16;;;1.76;89.71
49315;BME280;36672;50.710;12.498;2022-12-07T08:20:24;98210.31;;;1.75;89.36
49315;BME280;36672;50.710;12.498;2022-12-07T08:22:50;98217.63;;;1.73;89.22
49315;BME280;36672;50.710;12.498;2022-12-07T08:25:16;98211.09;;;1.68;89.29
49315;BME280;36672;50.710;12.498;2022-12-07T08:27:41;98203.38;;;1.65;89.31
49315;BME280;36672;50.710;12.498;2022-12-07T08:30:07;98207.19;;;1.62;89.18
49315;BME280;36672;50.710;12.498;2022-12-07T08:32:32;98200.44;;;1.68;89.57
49315;BME280;36672;50.710;12.498;2022-12-07T08:34:58;98205.22;;;1.82;89.75
49315;BME280;36672;50.710;12.498;2022-12-07T08:37:23;98207.91;;;2.18;90.32
49315;BME280;36672;50.710;12.498;2022-12-07T08:39:48;98195.78;;;2.76;90.43
49315;BME280;36672;50.710;12.498;2022-12-07T08:42:14;98209.66;;;3.66;90.19
49315;BME280;36672;50.710;12.498;2022-12-07T08:44:39;98213.16;;;4.98;90.77
49315;BME280;36672;50.710;12.498;2022-12-07T08:47:06;98195.13;;;5.95;87.43
49315;BME280;36672;50.710;12.498;2022-12-07T08:49:37;98212.78;;;5.89;83.09
49315;BME280;36672;50.710;12.498;2022-12-07T08:52:05;98201.97;;;5.34;81.73
49315;BME280;36672;50.710;12.498;2022-12-07T08:54:33;98196.78;;;4.93;82.07
49315;BME280;36672;50.710;12.498;2022-12-07T08:56:59;98203.38;;;4.57;82.20
49315;BME280;36672;50.710;12.498;2022-12-07T08:59:25;98204.41;;;4.40;82.67
49315;BME280;36672;50.710;12.498;2022-12-07T09:01:51;98204.91;;;4.44;83.02
49315;BME280;36672;50.710;12.498;2022-12-07T09:04:16;98200.38;;;4.44;82.47
49315;BME280;36672;50.710;12.498;2022-12-07T09:06:41;98185.97;;;4.53;82.89
49315;BME280;36672;50.710;12.498;2022-12-07T09:09:08;98198.78;;;4.91;82.57
49315;BME280;36672;50.710;12.498;2022-12-07T09:11:34;98161.88;;;5.18;80.58
49315;BME280;36672;50.710;12.498;2022-12-07T09:13:59;98187.31;;;5.53;79.42
49315;BME280;36672;50.710;12.498;2022-12-07T09:16:25;98162.06;;;5.48;78.73
49315;BME280;36672;50.710;12.498;2022-12-07T09:18:50;98187.97;;;5.87;78.43
49315;BME280;36672;50.710;12.498;2022-12-07T09:21:15;98189.28;;;6.76;78.71
49315;BME280;36672;50.710;12.498;2022-12-07T09:23:42;98179.00;;;7.76;77.17
49315;BME280;36672;50.710;12.498;2022-12-07T09:26:07;98190.47;;;8.28;74.39
49315;BME280;36672;50.710;12.498;2022-12-07T09:28:33;98153.28;;;7.88;72.97
49315;BME280;36672;50.710;12.498;2022-12-07T09:30:59;98188.88;;;7.90;72.61
49315;BME280;36672;50.710;12.498;2022-12-07T09:33:25;98190.91;;;7.66;71.97
49315;BME280;36672;50.710;12.498;2022-12-07T09:35:51;98180.38;;;7.35;72.85
49315;BME280;36672;50.710;12.498;2022-12-07T09:38:18;98190.94;;;7.22;72.34
49315;BME280;36672;50.710;12.498;2022-12-07T09:40:44;98181.59;;;6.88;71.94
49315;BME280;36672;50.710;12.498;2022-12-07T09:43:20;98165.81;;;6.55;71.89
49315;BME280;36672;50.710;12.498;2022-12-07T09:45:52;98183.25;;;6.59;72.26
49315;BME280;36672;50.710;12.498;2022-12-07T09:48:39;98173.19;;;6.38;71.50
49315;BME280;36672;50.710;12.498;2022-12-07T09:51:19;98184.56;;;6.40;72.63
49315;BME280;36672;50.710;12.498;2022-12-07T09:53:45;98158.25;;;6.20;71.94
49315;BME280;36672;50.710;12.498;2022-12-07T09:56:14;98180.97;;;6.32;72.48
49315;BME280;36672;50.710;12.498;2022-12-07T09:58:39;98167.16;;;6.35;72.14
49315;BME280;36672;50.710;12.498;2022-12-07T10:03:36;98159.38;;;6.94;71.07
49315;BME280;36672;50.710;12.498;2022-12-07T10:06:04;98170.66;;;7.04;70.59
49315;BME280;36672;50.710;12.498;2022-12-07T10:08:30;98150.84;;;6.90;70.44
49315;BME280;36672;50.710;12.498;2022-12-07T10:10:56;98156.13;;;6.83;70.74
49315;BME280;36672;50.710;12.498;2022-12-07T10:13:34;98151.47;;;6.62;66.85
49315;BME280;36672;50.710;12.498;2022-12-07T10:16:00;98150.75;;;6.68;70.36
49315;BME280;36672;50.710;12.498;2022-12-07T10:21:20;98154.47;;;6.97;69.42
49315;BME280;36672;50.710;12.498;2022-12-07T10:26:46;98153.38;;;6.92;70.07
49315;BME280;36672;50.710;12.498;2022-12-07T10:29:15;98150.31;;;6.95;69.77
49315;BME280;36672;50.710;12.498;2022-12-07T10:31:42;98131.22;;;6.90;69.80
49315;BME280;36672;50.710;12.498;2022-12-07T10:34:32;98149.63;;;7.23;68.33
49315;BME280;36672;50.710;12.498;2022-12-07T10:39:49;98150.69;;;7.43;68.33
49315;BME280;36672;50.710;12.498;2022-12-07T10:44:49;98145.38;;;7.28;67.17
49315;BME280;36672;50.710;12.498;2022-12-07T10:47:58;98139.16;;;7.13;66.30
49315;BME280;36672;50.710;12.498;2022-12-07T10:53:10;98143.06;;;6.65;66.08
49315;BME280;36672;50.710;12.498;2022-12-07T11:01:02;98148.47;;;6.04;67.37
49315;BME280;36672;50.710;12.498;2022-12-07T11:14:25;98128.25;;;5.47;69.34
49315;BME280;36672;50.710;12.498;2022-12-07T11:16:56;98139.34;;;5.44;69.54
49315;BME280;36672;50.710;12.498;2022-12-07T11:33:47;98120.66;;;5.27;69.88
49315;BME280;36672;50.710;12.498;2022-12-07T11:39:08;98119.41;;;5.06;70.32
49315;BME280;36672;50.710;12.498;2022-12-07T11:41:39;98125.16;;;4.95;70.34
49315;BME280;36672;50.710;12.498;2022-12-07T11:44:14;98125.88;;;4.81;70.51
49315;BME280;36672;50.710;12.498;2022-12-07T11:52:46;98119.75;;;4.55;70.48
49315;BME280;36672;50.710;12.498;2022-12-07T11:55:22;98093.91;;;4.31;70.63
49315;BME280;36672;50.710;12.498;2022-12-07T11:57:53;98122.31;;;4.40;70.84
49315;BME280;36672;50.710;12.498;2022-12-07T12:00:21;98101.56;;;4.34;70.74
49315;BME280;36672;50.710;12.498;2022-12-07T12:02:53;98090.25;;;4.24;70.59
49315;BME280;36672;50.710;12.498;2022-12-07T12:05:24;98093.22;;;4.29;70.90
49315;BME280;36672;50.710;12.498;2022-12-07T12:21:39;98077.56;;;4.74;69.48
49315;BME280;36672;50.710;12.498;2022-12-07T12:24:11;98085.06;;;5.42;68.70
49315;BME280;36672;50.710;12.498;2022-12-07T12:26:49;98050.66;;;5.53;66.49
49315;BME280;36672;50.710;12.498;2022-12-07T12:29:28;98069.41;;;5.77;66.18
49315;BME280;36672;50.710;12.498;2022-12-07T12:32:19;98076.88;;;6.43;64.12
49315;BME280;36672;50.710;12.498;2022-12-07T12:35:02;98058.16;;;6.94;64.18
49315;BME280;36672;50.710;12.498;2022-12-07T12:42:56;98064.84;;;8.28;60.11
49315;BME280;36672;50.710;12.498;2022-12-07T12:47:55;98073.34;;;7.60;61.19
49315;BME280;36672;50.710;12.498;2022-12-07T12:50:35;98035.22;;;6.92;60.43
49315;BME280;36672;50.710;12.498;2022-12-07T12:53:21;98058.09;;;6.73;63.14
49315;BME280;36672;50.710;12.498;2022-12-07T12:55:59;98059.09;;;6.42;63.37
49315;BME280;36672;50.710;12.498;2022-12-07T12:58:34;98060.75;;;6.13;64.10
49315;BME280;36672;50.710;12.498;2022-12-07T13:04:16;98058.81;;;6.22;63.88
49315;BME280;36672;50.710;12.498;2022-12-07T13:06:43;98048.75;;;6.53;63.87
49315;BME280;36672;50.710;12.498;2022-12-07T13:09:28;98056.69;;;6.77;61.63
49315;BME280;36672;50.710;12.498;2022-12-07T13:11:59;98061.41;;;6.75;62.23
49315;BME280;36672;50.710;12.498;2022-12-07T13:14:57;98056.31;;;6.65;62.23
49315;BME280;36672;50.710;12.498;2022-12-07T13:20:01;98060.09;;;6.26;63.40
49315;BME280;36672;50.710;12.498;2022-12-07T13:24:57;98041.81;;;5.91;64.81
49315;BME280;36672;50.710;12.498;2022-12-07T13:27:25;98066.13;;;5.90;64.88
49315;BME280;36672;50.710;12.498;2022-12-07T13:29:50;98065.72;;;5.78;65.16
49315;BME280;36672;50.710;12.498;2022-12-07T13:32:27;98065.19;;;5.59;64.20
49315;BME280;36672;50.710;12.498;2022-12-07T13:34:53;98065.19;;;5.59;65.54
49315;BME280;36672;50.710;12.498;2022-12-07T13:39:59;98052.53;;;5.30;65.68
49315;BME280;36672;50.710;12.498;2022-12-07T13:42:33;98065.91;;;5.30;66.18
49315;BME280;36672;50.710;12.498;2022-12-07T13:47:47;98061.44;;;5.22;66.30
49315;BME280;36672;50.710;12.498;2022-12-07T13:50:28;98043.25;;;5.09;66.31
49315;BME280;36672;50.710;12.498;2022-12-07T13:52:58;98035.78;;;4.96;66.53
49315;BME280;36672;50.710;12.498;2022-12-07T13:55:24;98058.84;;;5.05;66.90
49315;BME280;36672;50.710;12.498;2022-12-07T13:57:52;98056.53;;;5.02;67.11
49315;BME280;36672;50.710;12.498;2022-12-07T14:00:24;98046.75;;;4.86;67.18
49315;BME280;36672;50.710;12.498;2022-12-07T14:05:39;98058.22;;;4.64;67.81
49315;BME280;36672;50.710;12.498;2022-12-07T14:08:21;98046.78;;;4.30;68.51
49315;BME280;36672;50.710;12.498;2022-12-07T14:15:53;98056.19;;;4.10;69.13
49315;BME280;36672;50.710;12.498;2022-12-07T14:18:30;98044.16;;;4.05;69.35
49315;BME280;36672;50.710;12.498;2022-12-07T14:21:27;98048.50;;;4.06;69.36
49315;BME280;36672;50.710;12.498;2022-12-07T14:24:19;98049.34;;;4.07;70.19
49315;BME280;36672;50.710;12.498;2022-12-07T14:26:47;98051.34;;;4.13;69.58
49315;BME280;36672;50.710;12.498;2022-12-07T14:29:29;98052.16;;;4.14;69.77
49315;BME280;36672;50.710;12.498;2022-12-07T14:31:57;98048.50;;;4.15;70.18
49315;BME280;36672;50.710;12.498;2022-12-07T14:34:23;98055.66;;;4.22;70.00
49315;BME280;36672;50.710;12.498;2022-12-07T14:36:49;98047.28;;;4.25;69.98
49315;BME280;36672;50.710;12.498;2022-12-07T14:39:15;98038.63;;;4.15;70.28
49315;BME280;36672;50.710;12.498;2022-12-07T14:41:40;98041.50;;;4.05;70.47
49315;BME280;36672;50.710;12.498;2022-12-07T14:44:19;98020.97;;;3.81;70.52
49315;BME280;36672;50.710;12.498;2022-12-07T14:46:46;98046.69;;;3.90;70.84
49315;BME280;36672;50.710;12.498;2022-12-07T14:49:11;98034.84;;;3.77;71.03
49315;BME280;36672;50.710;12.498;2022-12-07T14:51:39;98062.38;;;3.77;71.55
49315;BME280;36672;50.710;12.498;2022-12-07T14:54:14;98066.06;;;3.68;71.38
49315;BME280;36672;50.710;12.498;2022-12-07T14:56:40;98057.91;;;3.61;71.89
49315;BME280;36672;50.710;12.498;2022-12-07T14:59:07;98046.03;;;3.47;72.46
49315;BME280;36672;50.710;12.498;2022-12-07T15:01:32;98066.06;;;3.59;72.48